Saga Sapphire — 9HOF8 — position and weather

sailwx.info

Track history (hours):
 
Tides and Currents Weather Stations Pressure Air Temp Water Temp Dewpoint Dewpoint Depression Visibility Wind Speed Wind Dir Waves Ship Positions

Saga Sapphire

Last reported at 2016-Jul-23 11:22 UTC. Time now 2016-Jul-31 07:18 UTC.
Position N 55°53' W 007°10'.

Length 200 m; draft 8.5 m.

Type: Ship. MMSI: 256208000.

Date/timePositionNaut miles runAvg speedWind from/ knotsBaromVisibWave heightAir tempDewpointWater temp
2016-Jul-23 11:22N 55°53' W 007°10'810.0
2016-Jul-23 10:33N 55°46' W 007°01'9 8.8
2016-Jul-23 09:33N 55°40' W 006°50'9 9.0
2016-Jul-23 08:33N 55°33' W 006°40'1111.3
2016-Jul-23 07:33N 55°27' W 006°23'1515.3
2016-Jul-23 06:33N 55°21' W 005°58'3517.6
2016-Jul-23 04:34N 54°52' W 005°25'1717.2
2016-Jul-23 03:34N 54°36' W 005°14'1515.5
2016-Jul-23 02:34N 54°20' W 005°12'814.6
2016-Jul-23 02:00N 54°12' W 005°12'818.8 270 / 81019.927.0 1.516.215.2
2016-Jul-23 01:33N 54°06' W 005°21'1615.4
2016-Jul-23 00:30N 53°51' W 005°32'1615.7
2016-Jul-22 23:29N 53°36' W 005°42'146 4.9
2016-Jul-21 17:31N 51°10' W 005°51'1515.3
2016-Jul-21 16:33N 50°55' W 005°51'1515.1
2016-Jul-21 15:33N 50°40' W 005°52'1515.2
2016-Jul-21 14:33N 50°25' W 005°54'4011.8
2016-Jul-21 11:10N 49°55' W 005°12'1116.3
2016-Jul-21 10:29N 49°57' W 004°55'1415.5
2016-Jul-21 09:33N 50°00' W 004°33'1514.7
2016-Jul-21 08:33N 50°03' W 004°11'1414.1
2016-Jul-21 07:33N 50°08' W 003°50'1414.3
2016-Jul-21 06:33N 50°12' W 003°29'1616.0
2016-Jul-21 05:34N 50°14' W 003°04'1716.7
2016-Jul-21 04:33N 50°16' W 002°38'2418.6
2016-Jul-21 03:15N 50°20' W 002°01'2418.8
2016-Jul-21 02:00N 50°18' W 001°24'1225.4 270 / 151015.210.8 1.516.014.4
2016-Jul-21 01:31N 50°25' W 001°09'1818.7
2016-Jul-21 00:34N 50°27' W 000°41'1716.6
2016-Jul-20 23:34N 50°29' W 000°15'1515.2
2016-Jul-20 22:33N 50°33' E 000°08'1514.4
2016-Jul-20 21:30N 50°37' E 000°32'1414.7
2016-Jul-20 20:33N 50°44' E 000°50'1616.2
2016-Jul-20 19:33N 50°55' E 001°10'1313.0
2016-Jul-20 18:33N 51°06' E 001°20'1 0.2
2016-Jul-20 13:06N 51°07' E 001°19'0 0.0
2016-Jul-20 09:24N 51°07' E 001°19'0 0.0
2016-Jul-20 07:27N 51°07' E 001°19'1 0.6
2016-Jul-20 06:33N 51°07' E 001°20'1010.2
2016-Jul-20 05:34N 51°11' E 001°35'2914.5
2016-Jul-20 03:33N 51°36' E 001°57'1514.7
2016-Jul-20 02:33N 51°48' E 002°10'1514.4
2016-Jul-20 01:33N 52°02' E 002°16'3115.2
2016-Jul-19 23:30N 52°32' E 002°31'3215.9
2016-Jul-19 21:28N 53°04' E 002°38'1516.1
2016-Jul-19 20:33N 53°18' E 002°46'1615.9
2016-Jul-19 19:33N 53°33' E 002°55'1514.8
2016-Jul-19 18:33N 53°47' E 003°06'3014.4
2016-Jul-19 16:29N 54°14' E 003°26'1614.8
2016-Jul-19 15:26N 54°30' E 003°27'1315.0
2016-Jul-19 14:33N 54°43' E 003°29'1515.0
2016-Jul-19 13:33N 54°58' E 003°30'1514.8
2016-Jul-19 12:32N 55°13' E 003°33'17415.0
2016-Jul-19 01:00N 58°06' E 003°54'   180 / 111017.827.0 1.514.010.2
2016-Jul-16 10:32N 66°23' E 011°30'1414.6
2016-Jul-16 09:33N 66°36' E 011°49'6915.0
2016-Jul-16 05:00N 67°30' E 013°36'2515.9 030 / 101009.9 5.4 0.512.0 9.012.0
2016-Jul-16 03:27N 67°50' E 014°15'258 5.6
2016-Jul-14 05:00N 70°54' E 022°48'33 8.4 220 / 241002.0 2.2 1.010.0 9.0 9.0
2016-Jul-14 01:00N 71°06' E 024°24'   220 / 211002.327.0 1.5 9.5 8.5
Track history (hours):
 
Tides and Currents Weather Stations Pressure Air Temp Water Temp Dewpoint Dewpoint Depression Visibility Wind Speed Wind Dir Waves Ship Positions

Saga Sapphire

Last reported at 2016-Jul-23 11:22 UTC. Time now 2016-Jul-31 07:18 UTC.
Position N 55°53' W 007°10'.

Length 200 m; draft 8.5 m.

Type: Ship. MMSI: 256208000.

Date/timePositionNaut miles runAvg speedWind from/ knotsBaromVisibWave heightAir tempDewpointWater temp
2016-Jul-23 11:22N 55°53' W 007°10'810.0
2016-Jul-23 10:33N 55°46' W 007°01'9 8.8
2016-Jul-23 09:33N 55°40' W 006°50'9 9.0
2016-Jul-23 08:33N 55°33' W 006°40'1111.3
2016-Jul-23 07:33N 55°27' W 006°23'1515.3
2016-Jul-23 06:33N 55°21' W 005°58'3517.6
2016-Jul-23 04:34N 54°52' W 005°25'1717.2
2016-Jul-23 03:34N 54°36' W 005°14'1515.5
2016-Jul-23 02:34N 54°20' W 005°12'814.6
2016-Jul-23 02:00N 54°12' W 005°12'818.8 270 / 81019.927.0 1.516.215.2
2016-Jul-23 01:33N 54°06' W 005°21'1615.4
2016-Jul-23 00:30N 53°51' W 005°32'1615.7
2016-Jul-22 23:29N 53°36' W 005°42'146 4.9
2016-Jul-21 17:31N 51°10' W 005°51'1515.3
2016-Jul-21 16:33N 50°55' W 005°51'1515.1
2016-Jul-21 15:33N 50°40' W 005°52'1515.2
2016-Jul-21 14:33N 50°25' W 005°54'4011.8
2016-Jul-21 11:10N 49°55' W 005°12'1116.3
2016-Jul-21 10:29N 49°57' W 004°55'1415.5
2016-Jul-21 09:33N 50°00' W 004°33'1514.7
2016-Jul-21 08:33N 50°03' W 004°11'1414.1
2016-Jul-21 07:33N 50°08' W 003°50'1414.3
2016-Jul-21 06:33N 50°12' W 003°29'1616.0
2016-Jul-21 05:34N 50°14' W 003°04'1716.7
2016-Jul-21 04:33N 50°16' W 002°38'2418.6
2016-Jul-21 03:15N 50°20' W 002°01'2418.8
2016-Jul-21 02:00N 50°18' W 001°24'1225.4 270 / 151015.210.8 1.516.014.4
2016-Jul-21 01:31N 50°25' W 001°09'1818.7
2016-Jul-21 00:34N 50°27' W 000°41'1716.6
2016-Jul-20 23:34N 50°29' W 000°15'1515.2
2016-Jul-20 22:33N 50°33' E 000°08'1514.4
2016-Jul-20 21:30N 50°37' E 000°32'1414.7
2016-Jul-20 20:33N 50°44' E 000°50'1616.2
2016-Jul-20 19:33N 50°55' E 001°10'1313.0
2016-Jul-20 18:33N 51°06' E 001°20'1 0.2
2016-Jul-20 13:06N 51°07' E 001°19'0 0.0
2016-Jul-20 09:24N 51°07' E 001°19'0 0.0
2016-Jul-20 07:27N 51°07' E 001°19'1 0.6
2016-Jul-20 06:33N 51°07' E 001°20'1010.2
2016-Jul-20 05:34N 51°11' E 001°35'2914.5
2016-Jul-20 03:33N 51°36' E 001°57'1514.7
2016-Jul-20 02:33N 51°48' E 002°10'1514.4
2016-Jul-20 01:33N 52°02' E 002°16'3115.2
2016-Jul-19 23:30N 52°32' E 002°31'3215.9
2016-Jul-19 21:28N 53°04' E 002°38'1516.1
2016-Jul-19 20:33N 53°18' E 002°46'1615.9
2016-Jul-19 19:33N 53°33' E 002°55'1514.8
2016-Jul-19 18:33N 53°47' E 003°06'3014.4
2016-Jul-19 16:29N 54°14' E 003°26'1614.8
2016-Jul-19 15:26N 54°30' E 003°27'1315.0
2016-Jul-19 14:33N 54°43' E 003°29'1515.0
2016-Jul-19 13:33N 54°58' E 003°30'1514.8
2016-Jul-19 12:32N 55°13' E 003°33'17415.0
2016-Jul-19 01:00N 58°06' E 003°54'   180 / 111017.827.0 1.514.010.2
2016-Jul-16 10:32N 66°23' E 011°30'1414.6
2016-Jul-16 09:33N 66°36' E 011°49'6915.0
2016-Jul-16 05:00N 67°30' E 013°36'2515.9 030 / 101009.9 5.4 0.512.0 9.012.0
2016-Jul-16 03:27N 67°50' E 014°15'258 5.6
2016-Jul-14 05:00N 70°54' E 022°48'33 8.4 220 / 241002.0 2.2 1.010.0 9.0 9.0
2016-Jul-14 01:00N 71°06' E 024°24'   220 / 211002.327.0 1.5 9.5 8.5

Dump ship's entire track history